CHICAGO O'HARE INTL

KORD (ORD)
Chicago, Illinois
Towered

Vatsim Metar:
KORD 250951Z 23006KT 10SM CLR 17/14 A2981 RMK AO2 SLP090 T01670144

No ATC Online

Traffic

Inbound:
Ident
Type
Name
ETA
Phase
CLX82G
B748/L
Malte Ramuschkat EDDV
12:30 Z
Cruse

Outbound:
None